sensor_id;sensor_type;location;lat;lon;timestamp;pressure;altitude;pressure_sealevel;temperature;humidity
37710;BME280;60223;34.854;-92.408;2022-08-11T00:08:51;100653.70;;;28.26;27.95
37710;BME280;60223;34.854;-92.408;2022-08-11T00:11:15;100652.97;;;28.86;26.89
37710;BME280;60223;34.854;-92.408;2022-08-11T00:13:41;100649.40;;;29.27;26.67
37710;BME280;60223;34.854;-92.408;2022-08-11T00:16:10;100651.27;;;29.95;26.14
37710;BME280;60223;34.854;-92.408;2022-08-11T00:21:01;100652.60;;;30.07;25.93
37710;BME280;60223;34.854;-92.408;2022-08-11T00:23:22;100650.66;;;30.59;25.53
37710;BME280;60223;34.854;-92.408;2022-08-11T00:25:50;100657.03;;;30.68;25.53
37710;BME280;60223;34.854;-92.408;2022-08-11T00:28:23;100657.11;;;30.08;26.02
37710;BME280;60223;34.854;-92.408;2022-08-11T00:30:41;100656.97;;;30.54;25.72
37710;BME280;60223;34.854;-92.408;2022-08-11T00:33:05;100656.79;;;30.63;25.49
37710;BME280;60223;34.854;-92.408;2022-08-11T00:35:30;100655.85;;;31.01;25.46
37710;BME280;60223;34.854;-92.408;2022-08-11T00:37:58;100650.82;;;30.71;25.87
37710;BME280;60223;34.854;-92.408;2022-08-11T00:40:28;100644.02;;;31.05;25.78
37710;BME280;60223;34.854;-92.408;2022-08-11T00:42:57;100647.64;;;31.05;25.84
37710;BME280;60223;34.854;-92.408;2022-08-11T00:45:18;100645.49;;;30.96;26.04
37710;BME280;60223;34.854;-92.408;2022-08-11T00:47:51;100649.02;;;31.62;25.66
37710;BME280;60223;34.854;-92.408;2022-08-11T00:50:13;100650.50;;;31.44;25.69
37710;BME280;60223;34.854;-92.408;2022-08-11T00:52:43;100652.11;;;31.86;25.71
37710;BME280;60223;34.854;-92.408;2022-08-11T01:00:03;100657.60;;;31.70;25.99
37710;BME280;60223;34.854;-92.408;2022-08-11T01:02:17;100662.31;;;31.48;26.13
37710;BME280;60223;34.854;-92.408;2022-08-11T01:09:40;100671.77;;;31.84;26.14
37710;BME280;60223;34.854;-92.408;2022-08-11T01:14:42;100679.14;;;31.82;26.45
37710;BME280;60223;34.854;-92.408;2022-08-11T01:17:12;100683.92;;;31.40;26.85
37710;BME280;60223;34.854;-92.408;2022-08-11T01:41:17;100707.84;;;23.69;34.69
37710;BME280;60223;34.854;-92.408;2022-08-11T01:45:57;100716.39;;;24.74;32.87
37710;BME280;60223;34.854;-92.408;2022-08-11T01:48:27;100719.76;;;25.47;31.64
37710;BME280;60223;34.854;-92.408;2022-08-11T01:50:56;100725.05;;;24.92;31.71
37710;BME280;60223;34.854;-92.408;2022-08-11T01:53:20;100727.84;;;24.61;32.31
37710;BME280;60223;34.854;-92.408;2022-08-11T01:55:42;100731.03;;;23.35;33.02
37710;BME280;60223;34.854;-92.408;2022-08-11T01:58:11;100729.00;;;23.87;32.52
37710;BME280;60223;34.854;-92.408;2022-08-11T02:00:31;100733.34;;;23.53;32.51
37710;BME280;60223;34.854;-92.408;2022-08-11T02:02:57;100738.09;;;24.04;31.65
37710;BME280;60223;34.854;-92.408;2022-08-11T02:05:28;100746.37;;;24.63;30.76
37710;BME280;60223;34.854;-92.408;2022-08-11T02:07:53;100749.94;;;24.39;30.53
37710;BME280;60223;34.854;-92.408;2022-08-11T02:10:19;100756.05;;;22.96;31.84
37710;BME280;60223;34.854;-92.408;2022-08-11T02:12:45;100756.16;;;22.60;33.36
37710;BME280;60223;34.854;-92.408;2022-08-11T02:15:08;100752.99;;;27.72;27.85
37710;BME280;60223;34.854;-92.408;2022-08-11T02:17:36;100758.36;;;28.82;26.37
37710;BME280;60223;34.854;-92.408;2022-08-11T02:19:56;100763.04;;;29.28;26.44
37710;BME280;60223;34.854;-92.408;2022-08-11T02:22:30;100767.51;;;29.63;26.03
37710;BME280;60223;34.854;-92.408;2022-08-11T02:24:47;100771.26;;;30.02;25.36
37710;BME280;60223;34.854;-92.408;2022-08-11T02:27:14;100772.83;;;30.20;25.41
37710;BME280;60223;34.854;-92.408;2022-08-11T02:29:40;100776.36;;;30.34;25.37
37710;BME280;60223;34.854;-92.408;2022-08-11T02:32:08;100778.23;;;30.43;25.42
37710;BME280;60223;34.854;-92.408;2022-08-11T02:34:34;100779.39;;;30.78;25.33
37710;BME280;60223;34.854;-92.408;2022-08-11T02:36:59;100780.75;;;30.58;25.43
37710;BME280;60223;34.854;-92.408;2022-08-11T02:39:19;100779.87;;;31.28;25.06
37710;BME280;60223;34.854;-92.408;2022-08-11T02:41:50;100776.92;;;30.64;25.49
37710;BME280;60223;34.854;-92.408;2022-08-11T02:44:19;100774.80;;;30.98;25.29
37710;BME280;60223;34.854;-92.408;2022-08-11T02:46:47;100779.65;;;31.00;25.38
37710;BME280;60223;34.854;-92.408;2022-08-11T02:49:05;100786.70;;;31.11;25.38
37710;BME280;60223;34.854;-92.408;2022-08-11T02:51:31;100789.82;;;31.28;25.20
37710;BME280;60223;34.854;-92.408;2022-08-11T02:53:58;100793.20;;;31.18;25.49
37710;BME280;60223;34.854;-92.408;2022-08-11T02:56:22;100796.19;;;31.26;25.51
37710;BME280;60223;34.854;-92.408;2022-08-11T02:58:47;100797.34;;;31.56;25.37
37710;BME280;60223;34.854;-92.408;2022-08-11T03:01:12;100797.38;;;31.04;25.91
37710;BME280;60223;34.854;-92.408;2022-08-11T03:03:35;100801.25;;;31.20;25.69
37710;BME280;60223;34.854;-92.408;2022-08-11T03:06:07;100805.42;;;31.28;25.64
37710;BME280;60223;34.854;-92.408;2022-08-11T03:08:39;100811.19;;;31.27;25.71
37710;BME280;60223;34.854;-92.408;2022-08-11T03:10:55;100815.68;;;31.65;25.72
37710;BME280;60223;34.854;-92.408;2022-08-11T03:13:21;100813.59;;;30.85;26.28
37710;BME280;60223;34.854;-92.408;2022-08-11T03:15:48;100812.33;;;31.13;26.12
37710;BME280;60223;34.854;-92.408;2022-08-11T03:18:16;100811.87;;;31.59;25.78
37710;BME280;60223;34.854;-92.408;2022-08-11T03:20:37;100815.14;;;31.73;25.72
37710;BME280;60223;34.854;-92.408;2022-08-11T03:23:03;100813.57;;;31.28;26.21
37710;BME280;60223;34.854;-92.408;2022-08-11T03:25:29;100820.62;;;31.34;25.97
37710;BME280;60223;34.854;-92.408;2022-08-11T03:27:52;100823.75;;;31.14;26.24
37710;BME280;60223;34.854;-92.408;2022-08-11T03:30:18;100829.02;;;31.68;25.83
37710;BME280;60223;34.854;-92.408;2022-08-11T03:32:50;100827.84;;;32.04;25.81
37710;BME280;60223;34.854;-92.408;2022-08-11T03:35:03;100830.21;;;31.33;26.27
37710;BME280;60223;34.854;-92.408;2022-08-11T03:37:40;100826.68;;;31.30;26.39
37710;BME280;60223;34.854;-92.408;2022-08-11T03:40:03;100822.25;;;31.34;26.39
37710;BME280;60223;34.854;-92.408;2022-08-11T03:42:32;100819.52;;;31.87;26.20
37710;BME280;60223;34.854;-92.408;2022-08-11T03:45:00;100820.58;;;31.43;26.43
37710;BME280;60223;34.854;-92.408;2022-08-11T03:47:26;100823.26;;;31.49;26.43
37710;BME280;60223;34.854;-92.408;2022-08-11T03:49:45;100820.86;;;31.87;26.23
37710;BME280;60223;34.854;-92.408;2022-08-11T03:52:12;100821.24;;;31.62;26.46
37710;BME280;60223;34.854;-92.408;2022-08-11T03:54:38;100818.70;;;31.96;26.47
37710;BME280;60223;34.854;-92.408;2022-08-11T03:59:38;100810.25;;;27.75;30.72
37710;BME280;60223;34.854;-92.408;2022-08-11T04:02:04;100812.26;;;26.49;31.58
37710;BME280;60223;34.854;-92.408;2022-08-11T04:06:51;100801.88;;;27.66;29.95
37710;BME280;60223;34.854;-92.408;2022-08-11T04:11:49;100801.86;;;24.86;31.87
37710;BME280;60223;34.854;-92.408;2022-08-11T04:23:52;100800.93;;;28.24;27.88
37710;BME280;60223;34.854;-92.408;2022-08-11T04:26:27;100801.65;;;26.85;28.66
37710;BME280;60223;34.854;-92.408;2022-08-11T04:28:50;100805.51;;;27.53;27.84
37710;BME280;60223;34.854;-92.408;2022-08-11T04:31:09;100809.67;;;27.21;27.91
37710;BME280;60223;34.854;-92.408;2022-08-11T04:33:33;100810.15;;;25.81;28.55
37710;BME280;60223;34.854;-92.408;2022-08-11T04:35:52;100811.31;;;25.56;28.61
37710;BME280;60223;34.854;-92.408;2022-08-11T04:40:48;100811.88;;;27.87;27.12
37710;BME280;60223;34.854;-92.408;2022-08-11T04:45:37;100815.31;;;29.22;26.03
37710;BME280;60223;34.854;-92.408;2022-08-11T04:48:08;100817.57;;;30.17;25.33
37710;BME280;60223;34.854;-92.408;2022-08-11T04:50:30;100821.77;;;30.04;25.22
37710;BME280;60223;34.854;-92.408;2022-08-11T04:53:00;100821.83;;;30.04;25.29
37710;BME280;60223;34.854;-92.408;2022-08-11T04:55:24;100823.92;;;30.28;25.08
37710;BME280;60223;34.854;-92.408;2022-08-11T04:57:44;100821.57;;;30.43;25.12
37710;BME280;60223;34.854;-92.408;2022-08-11T05:00:06;100822.23;;;30.45;25.25
37710;BME280;60223;34.854;-92.408;2022-08-11T05:05:02;100809.42;;;30.89;24.98
37710;BME280;60223;34.854;-92.408;2022-08-11T05:07:35;100809.42;;;31.04;24.86
37710;BME280;60223;34.854;-92.408;2022-08-11T05:12:19;100807.09;;;30.19;25.58
37710;BME280;60223;34.854;-92.408;2022-08-11T05:14:40;100804.44;;;30.79;25.38
37710;BME280;60223;34.854;-92.408;2022-08-11T05:17:10;100805.29;;;31.29;25.20
37710;BME280;60223;34.854;-92.408;2022-08-11T05:19:26;100810.71;;;30.87;25.43
37710;BME280;60223;34.854;-92.408;2022-08-11T05:21:56;100812.53;;;31.26;25.30
37710;BME280;60223;34.854;-92.408;2022-08-11T05:24:23;100806.18;;;31.10;25.52
37710;BME280;60223;34.854;-92.408;2022-08-11T05:26:48;100805.65;;;30.71;25.92
37710;BME280;60223;34.854;-92.408;2022-08-11T05:29:24;100807.01;;;31.39;25.42
37710;BME280;60223;34.854;-92.408;2022-08-11T05:31:42;100807.79;;;31.17;25.55
37710;BME280;60223;34.854;-92.408;2022-08-11T05:34:08;100811.35;;;30.96;25.92
37710;BME280;60223;34.854;-92.408;2022-08-11T05:36:32;100809.03;;;31.11;25.90
37710;BME280;60223;34.854;-92.408;2022-08-11T05:38:56;100808.84;;;31.18;25.90
37710;BME280;60223;34.854;-92.408;2022-08-11T05:41:22;100806.12;;;31.23;25.71
37710;BME280;60223;34.854;-92.408;2022-08-11T05:43:45;100805.16;;;31.09;26.11
37710;BME280;60223;34.854;-92.408;2022-08-11T05:46:08;100803.99;;;31.19;25.97
37710;BME280;60223;34.854;-92.408;2022-08-11T05:48:36;100805.71;;;30.95;25.85
37710;BME280;60223;34.854;-92.408;2022-08-11T05:51:00;100811.68;;;31.32;26.00
37710;BME280;60223;34.854;-92.408;2022-08-11T05:53:26;100810.84;;;31.19;26.15
37710;BME280;60223;34.854;-92.408;2022-08-11T05:55:52;100810.18;;;31.49;25.88
37710;BME280;60223;34.854;-92.408;2022-08-11T05:58:18;100812.11;;;31.47;25.98
37710;BME280;60223;34.854;-92.408;2022-08-11T06:00:45;100811.56;;;31.04;25.92
37710;BME280;60223;34.854;-92.408;2022-08-11T06:03:08;100812.34;;;30.97;26.43
37710;BME280;60223;34.854;-92.408;2022-08-11T06:05:36;100809.87;;;31.38;26.14
37710;BME280;60223;34.854;-92.408;2022-08-11T06:08:00;100810.33;;;31.57;26.09
37710;BME280;60223;34.854;-92.408;2022-08-11T06:10:31;100811.18;;;31.41;26.35
37710;BME280;60223;34.854;-92.408;2022-08-11T06:12:56;100809.75;;;31.70;26.16
37710;BME280;60223;34.854;-92.408;2022-08-11T06:15:16;100806.57;;;31.04;26.34
37710;BME280;60223;34.854;-92.408;2022-08-11T06:17:44;100805.80;;;31.32;26.32
37710;BME280;60223;34.854;-92.408;2022-08-11T06:20:08;100804.13;;;31.54;26.45
37710;BME280;60223;34.854;-92.408;2022-08-11T06:22:34;100801.44;;;31.26;26.64
37710;BME280;60223;34.854;-92.408;2022-08-11T06:24:59;100798.67;;;31.47;26.45
37710;BME280;60223;34.854;-92.408;2022-08-11T06:27:26;100797.22;;;31.35;26.38
37710;BME280;60223;34.854;-92.408;2022-08-11T06:29:50;100793.48;;;30.91;26.64
37710;BME280;60223;34.854;-92.408;2022-08-11T06:32:16;100795.11;;;31.60;26.50
37710;BME280;60223;34.854;-92.408;2022-08-11T06:34:52;100796.77;;;31.23;26.49
37710;BME280;60223;34.854;-92.408;2022-08-11T06:37:19;100800.27;;;31.60;26.33
37710;BME280;60223;34.854;-92.408;2022-08-11T06:39:46;100799.27;;;31.34;26.44
37710;BME280;60223;34.854;-92.408;2022-08-11T06:42:04;100794.95;;;31.88;26.30
37710;BME280;60223;34.854;-92.408;2022-08-11T06:44:28;100792.44;;;31.44;26.51
37710;BME280;60223;34.854;-92.408;2022-08-11T06:46:49;100790.48;;;31.26;26.51
37710;BME280;60223;34.854;-92.408;2022-08-11T06:49:17;100786.34;;;31.57;26.49
37710;BME280;60223;34.854;-92.408;2022-08-11T06:51:42;100783.75;;;31.86;26.45
37710;BME280;60223;34.854;-92.408;2022-08-11T06:54:06;100782.93;;;31.04;26.79
37710;BME280;60223;34.854;-92.408;2022-08-11T06:56:34;100780.17;;;31.18;26.78
37710;BME280;60223;34.854;-92.408;2022-08-11T06:58:58;100776.26;;;31.21;26.74
37710;BME280;60223;34.854;-92.408;2022-08-11T07:01:31;100774.24;;;31.67;26.82
37710;BME280;60223;34.854;-92.408;2022-08-11T07:03:52;100768.28;;;31.39;26.67
37710;BME280;60223;34.854;-92.408;2022-08-11T07:06:23;100764.93;;;31.33;27.21
37710;BME280;60223;34.854;-92.408;2022-08-11T07:13:34;100768.92;;;31.40;26.95
37710;BME280;60223;34.854;-92.408;2022-08-11T07:15:59;100773.57;;;31.38;26.87
37710;BME280;60223;34.854;-92.408;2022-08-11T07:18:24;100779.69;;;31.10;27.32
37710;BME280;60223;34.854;-92.408;2022-08-11T07:20:48;100779.61;;;31.18;27.17
37710;BME280;60223;34.854;-92.408;2022-08-11T07:23:14;100774.01;;;31.04;27.32
37710;BME280;60223;34.854;-92.408;2022-08-11T07:25:42;100769.73;;;31.63;27.36
37710;BME280;60223;34.854;-92.408;2022-08-11T07:28:09;100763.33;;;31.72;27.24
37710;BME280;60223;34.854;-92.408;2022-08-11T07:30:31;100763.02;;;31.24;27.16
37710;BME280;60223;34.854;-92.408;2022-08-11T07:33:00;100764.80;;;31.25;27.33
37710;BME280;60223;34.854;-92.408;2022-08-11T07:35:26;100760.69;;;31.33;27.20
37710;BME280;60223;34.854;-92.408;2022-08-11T07:37:47;100757.08;;;31.20;27.35
37710;BME280;60223;34.854;-92.408;2022-08-11T07:40:13;100757.97;;;31.63;27.11
37710;BME280;60223;34.854;-92.408;2022-08-11T07:42:39;100759.14;;;31.27;27.14
37710;BME280;60223;34.854;-92.408;2022-08-11T07:45:08;100762.37;;;31.44;27.35
37710;BME280;60223;34.854;-92.408;2022-08-11T07:47:30;100762.05;;;31.39;27.17
37710;BME280;60223;34.854;-92.408;2022-08-11T07:49:56;100763.11;;;31.34;27.21
37710;BME280;60223;34.854;-92.408;2022-08-11T07:52:21;100761.19;;;31.67;27.23
37710;BME280;60223;34.854;-92.408;2022-08-11T07:54:46;100758.96;;;31.89;27.15
37710;BME280;60223;34.854;-92.408;2022-08-11T07:57:12;100759.62;;;31.31;27.38
37710;BME280;60223;34.854;-92.408;2022-08-11T07:59:38;100756.96;;;31.86;27.27
37710;BME280;60223;34.854;-92.408;2022-08-11T08:02:03;100756.17;;;31.23;27.45
37710;BME280;60223;34.854;-92.408;2022-08-11T08:04:29;100753.57;;;31.27;27.51
37710;BME280;60223;34.854;-92.408;2022-08-11T08:06:54;100749.19;;;31.72;27.40
37710;BME280;60223;34.854;-92.408;2022-08-11T08:09:22;100753.09;;;31.43;27.40
37710;BME280;60223;34.854;-92.408;2022-08-11T08:11:45;100758.48;;;30.99;27.92
37710;BME280;60223;34.854;-92.408;2022-08-11T08:14:11;100759.89;;;31.28;27.71
37710;BME280;60223;34.854;-92.408;2022-08-11T08:16:38;100757.55;;;30.43;28.72
37710;BME280;60223;34.854;-92.408;2022-08-11T08:19:00;100754.69;;;24.31;34.51
37710;BME280;60223;34.854;-92.408;2022-08-11T08:21:28;100754.94;;;24.92;33.84
37710;BME280;60223;34.854;-92.408;2022-08-11T08:23:52;100753.50;;;24.79;33.25
37710;BME280;60223;34.854;-92.408;2022-08-11T08:26:20;100754.67;;;23.57;34.76
37710;BME280;60223;34.854;-92.408;2022-08-11T08:28:44;100758.39;;;24.96;32.76
37710;BME280;60223;34.854;-92.408;2022-08-11T08:31:11;100759.98;;;25.89;31.35
37710;BME280;60223;34.854;-92.408;2022-08-11T08:33:36;100754.38;;;24.31;32.63
37710;BME280;60223;34.854;-92.408;2022-08-11T08:36:01;100754.91;;;24.73;32.06
37710;BME280;60223;34.854;-92.408;2022-08-11T08:38:27;100753.14;;;25.35;31.01
37710;BME280;60223;34.854;-92.408;2022-08-11T08:40:52;100755.26;;;24.38;31.60
37710;BME280;60223;34.854;-92.408;2022-08-11T08:43:20;100758.97;;;24.57;31.25
37710;BME280;60223;34.854;-92.408;2022-08-11T08:45:45;100756.11;;;23.88;31.81
37710;BME280;60223;34.854;-92.408;2022-08-11T08:48:14;100754.78;;;24.06;31.69
37710;BME280;60223;34.854;-92.408;2022-08-11T08:50:37;100751.40;;;23.77;31.45
37710;BME280;60223;34.854;-92.408;2022-08-11T08:53:06;100753.62;;;24.32;30.67
37710;BME280;60223;34.854;-92.408;2022-08-11T08:55:27;100759.75;;;25.93;29.80
37710;BME280;60223;34.854;-92.408;2022-08-11T08:57:55;100751.76;;;28.25;27.73
37710;BME280;60223;34.854;-92.408;2022-08-11T09:00:19;100749.60;;;28.71;26.97
37710;BME280;60223;34.854;-92.408;2022-08-11T09:02:44;100749.03;;;28.91;26.75
37710;BME280;60223;34.854;-92.408;2022-08-11T09:05:08;100749.93;;;28.03;27.12
37710;BME280;60223;34.854;-92.408;2022-08-11T09:07:36;100753.60;;;29.14;26.86
37710;BME280;60223;34.854;-92.408;2022-08-11T09:10:00;100749.10;;;29.53;26.30
37710;BME280;60223;34.854;-92.408;2022-08-11T09:12:30;100745.23;;;29.51;26.75
37710;BME280;60223;34.854;-92.408;2022-08-11T09:14:54;100742.60;;;29.09;26.71
37710;BME280;60223;34.854;-92.408;2022-08-11T09:17:17;100745.71;;;29.73;26.07
37710;BME280;60223;34.854;-92.408;2022-08-11T09:19:44;100744.30;;;30.06;25.89
37710;BME280;60223;34.854;-92.408;2022-08-11T09:22:09;100750.35;;;29.83;26.22
37710;BME280;60223;34.854;-92.408;2022-08-11T09:24:34;100755.63;;;30.30;26.02
37710;BME280;60223;34.854;-92.408;2022-08-11T09:27:03;100757.86;;;30.64;25.78
37710;BME280;60223;34.854;-92.408;2022-08-11T09:29:27;100759.56;;;30.66;25.84
37710;BME280;60223;34.854;-92.408;2022-08-11T09:31:51;100762.99;;;30.54;25.82
37710;BME280;60223;34.854;-92.408;2022-08-11T09:34:16;100758.19;;;30.31;26.10
37710;BME280;60223;34.854;-92.408;2022-08-11T09:36:44;100761.76;;;30.94;25.62
37710;BME280;60223;34.854;-92.408;2022-08-11T09:39:09;100764.57;;;31.08;25.74
37710;BME280;60223;34.854;-92.408;2022-08-11T09:41:32;100765.95;;;31.20;25.65
37710;BME280;60223;34.854;-92.408;2022-08-11T09:44:01;100766.48;;;31.00;26.08
37710;BME280;60223;34.854;-92.408;2022-08-11T09:46:27;100766.62;;;30.90;25.84
37710;BME280;60223;34.854;-92.408;2022-08-11T09:48:51;100767.19;;;31.19;26.00
37710;BME280;60223;34.854;-92.408;2022-08-11T09:51:17;100769.52;;;31.03;26.06
37710;BME280;60223;34.854;-92.408;2022-08-11T09:53:42;100767.57;;;31.20;25.87
37710;BME280;60223;34.854;-92.408;2022-08-11T09:56:10;100768.86;;;31.06;26.15
37710;BME280;60223;34.854;-92.408;2022-08-11T09:58:33;100773.75;;;31.21;26.28
37710;BME280;60223;34.854;-92.408;2022-08-11T10:01:00;100775.70;;;31.25;26.01
37710;BME280;60223;34.854;-92.408;2022-08-11T10:03:26;100779.31;;;31.17;26.13
37710;BME280;60223;34.854;-92.408;2022-08-11T10:05:54;100779.23;;;31.45;26.13
37710;BME280;60223;34.854;-92.408;2022-08-11T10:08:21;100777.74;;;31.19;26.26
37710;BME280;60223;34.854;-92.408;2022-08-11T10:10:41;100778.33;;;31.34;26.08
37710;BME280;60223;34.854;-92.408;2022-08-11T10:13:10;100777.87;;;31.44;26.27
37710;BME280;60223;34.854;-92.408;2022-08-11T10:15:35;100776.36;;;31.19;26.13
37710;BME280;60223;34.854;-92.408;2022-08-11T10:18:05;100776.62;;;31.27;26.19
37710;BME280;60223;34.854;-92.408;2022-08-11T10:20:26;100773.73;;;30.80;26.40
37710;BME280;60223;34.854;-92.408;2022-08-11T10:22:54;100773.93;;;31.17;26.39
37710;BME280;60223;34.854;-92.408;2022-08-11T10:25:15;100777.86;;;30.78;26.38
37710;BME280;60223;34.854;-92.408;2022-08-11T10:27:46;100782.94;;;31.39;26.26
37710;BME280;60223;34.854;-92.408;2022-08-11T10:30:13;100784.34;;;31.41;26.23
37710;BME280;60223;34.854;-92.408;2022-08-11T10:32:36;100782.30;;;31.33;26.34
37710;BME280;60223;34.854;-92.408;2022-08-11T10:34:59;100781.62;;;31.72;26.25
37710;BME280;60223;34.854;-92.408;2022-08-11T10:37:25;100783.90;;;31.44;26.33
37710;BME280;60223;34.854;-92.408;2022-08-11T10:39:49;100789.36;;;31.23;26.41
37710;BME280;60223;34.854;-92.408;2022-08-11T10:42:15;100793.23;;;31.15;26.52
37710;BME280;60223;34.854;-92.408;2022-08-11T10:44:51;100792.88;;;31.15;26.42
37710;BME280;60223;34.854;-92.408;2022-08-11T10:47:13;100793.55;;;31.38;26.50
37710;BME280;60223;34.854;-92.408;2022-08-11T10:49:33;100795.67;;;31.43;26.29
37710;BME280;60223;34.854;-92.408;2022-08-11T10:51:57;100798.56;;;31.46;26.35
37710;BME280;60223;34.854;-92.408;2022-08-11T10:54:25;100807.19;;;31.40;26.48
37710;BME280;60223;34.854;-92.408;2022-08-11T10:56:48;100809.09;;;31.58;26.55
37710;BME280;60223;34.854;-92.408;2022-08-11T10:59:19;100811.73;;;31.60;26.41
37710;BME280;60223;34.854;-92.408;2022-08-11T11:01:43;100812.21;;;31.43;26.61
37710;BME280;60223;34.854;-92.408;2022-08-11T11:04:05;100814.86;;;31.52;26.56
37710;BME280;60223;34.854;-92.408;2022-08-11T11:06:42;100820.19;;;31.57;26.64
37710;BME280;60223;34.854;-92.408;2022-08-11T11:09:02;100819.64;;;31.21;26.73
37710;BME280;60223;34.854;-92.408;2022-08-11T11:11:26;100821.98;;;31.34;26.64
37710;BME280;60223;34.854;-92.408;2022-08-11T11:13:49;100819.78;;;31.52;26.57
37710;BME280;60223;34.854;-92.408;2022-08-11T11:16:15;100820.58;;;30.89;26.83
37710;BME280;60223;34.854;-92.408;2022-08-11T11:18:38;100820.00;;;31.04;27.16
37710;BME280;60223;34.854;-92.408;2022-08-11T11:21:09;100823.69;;;30.65;27.84
37710;BME280;60223;34.854;-92.408;2022-08-11T11:23:37;100829.41;;;31.64;26.88
37710;BME280;60223;34.854;-92.408;2022-08-11T11:26:18;100827.49;;;31.54;27.20
37710;BME280;60223;34.854;-92.408;2022-08-11T11:28:33;100826.31;;;31.08;27.36
37710;BME280;60223;34.854;-92.408;2022-08-11T11:30:55;100826.44;;;31.33;27.47
37710;BME280;60223;34.854;-92.408;2022-08-11T11:33:19;100831.57;;;31.27;27.71
37710;BME280;60223;34.854;-92.408;2022-08-11T11:35:45;100834.81;;;31.23;27.39
37710;BME280;60223;34.854;-92.408;2022-08-11T11:38:05;100838.21;;;30.67;30.64
37710;BME280;60223;34.854;-92.408;2022-08-11T11:40:30;100843.79;;;30.19;32.56
37710;BME280;60223;34.854;-92.408;2022-08-11T11:42:57;100845.80;;;28.77;40.01
37710;BME280;60223;34.854;-92.408;2022-08-11T11:45:20;100848.47;;;29.36;35.98
37710;BME280;60223;34.854;-92.408;2022-08-11T11:47:48;100857.56;;;30.83;33.13
37710;BME280;60223;34.854;-92.408;2022-08-11T11:50:13;100857.77;;;30.92;34.46
37710;BME280;60223;34.854;-92.408;2022-08-11T11:52:38;100860.01;;;31.11;35.37
37710;BME280;60223;34.854;-92.408;2022-08-11T11:55:05;100857.98;;;31.04;34.82
37710;BME280;60223;34.854;-92.408;2022-08-11T11:57:29;100856.52;;;30.50;37.64
37710;BME280;60223;34.854;-92.408;2022-08-11T11:59:55;100859.34;;;30.26;35.85
37710;BME280;60223;34.854;-92.408;2022-08-11T12:02:20;100859.40;;;30.08;38.64
37710;BME280;60223;34.854;-92.408;2022-08-11T12:04:47;100858.29;;;30.57;36.64
37710;BME280;60223;34.854;-92.408;2022-08-11T12:07:10;100857.04;;;29.87;38.66
37710;BME280;60223;34.854;-92.408;2022-08-11T12:09:37;100859.67;;;29.95;39.68
37710;BME280;60223;34.854;-92.408;2022-08-11T12:12:01;100858.37;;;30.10;39.39
37710;BME280;60223;34.854;-92.408;2022-08-11T12:14:25;100858.97;;;30.28;36.37
37710;BME280;60223;34.854;-92.408;2022-08-11T12:16:54;100864.37;;;31.16;37.70
37710;BME280;60223;34.854;-92.408;2022-08-11T12:19:22;100867.19;;;30.65;37.98
37710;BME280;60223;34.854;-92.408;2022-08-11T12:21:45;100869.20;;;29.78;39.80
37710;BME280;60223;34.854;-92.408;2022-08-11T12:24:08;100872.52;;;30.51;38.53
37710;BME280;60223;34.854;-92.408;2022-08-11T12:26:36;100874.44;;;30.08;40.46
37710;BME280;60223;34.854;-92.408;2022-08-11T12:29:00;100881.23;;;29.55;40.46
37710;BME280;60223;34.854;-92.408;2022-08-11T12:31:27;100878.44;;;29.95;39.46
37710;BME280;60223;34.854;-92.408;2022-08-11T12:33:52;100882.79;;;30.55;39.97
37710;BME280;60223;34.854;-92.408;2022-08-11T12:36:18;100883.29;;;29.46;41.12
37710;BME280;60223;34.854;-92.408;2022-08-11T12:38:43;100879.19;;;30.08;40.38
37710;BME280;60223;34.854;-92.408;2022-08-11T12:41:09;100885.66;;;29.31;42.32
37710;BME280;60223;34.854;-92.408;2022-08-11T12:43:34;100885.05;;;29.01;42.39
37710;BME280;60223;34.854;-92.408;2022-08-11T12:46:03;100886.16;;;29.29;43.30
37710;BME280;60223;34.854;-92.408;2022-08-11T12:48:30;100883.99;;;27.88;44.79
37710;BME280;60223;34.854;-92.408;2022-08-11T12:50:55;100882.18;;;30.06;41.40
37710;BME280;60223;34.854;-92.408;2022-08-11T12:53:16;100884.38;;;29.44;43.96
37710;BME280;60223;34.854;-92.408;2022-08-11T12:55:44;100887.70;;;29.16;43.40
37710;BME280;60223;34.854;-92.408;2022-08-11T12:58:08;100890.84;;;29.03;44.86
37710;BME280;60223;34.854;-92.408;2022-08-11T13:00:34;100888.15;;;29.39;43.46
37710;BME280;60223;34.854;-92.408;2022-08-11T13:02:59;100885.97;;;28.59;45.35
37710;BME280;60223;34.854;-92.408;2022-08-11T13:05:23;100888.14;;;29.91;43.90
37710;BME280;60223;34.854;-92.408;2022-08-11T13:07:51;100889.88;;;28.72;45.39
37710;BME280;60223;34.854;-92.408;2022-08-11T13:10:16;100890.50;;;28.87;45.15
37710;BME280;60223;34.854;-92.408;2022-08-11T13:12:42;100895.45;;;29.28;44.12
37710;BME280;60223;34.854;-92.408;2022-08-11T13:15:07;100897.52;;;29.46;44.61
37710;BME280;60223;34.854;-92.408;2022-08-11T13:17:32;100894.98;;;29.83;43.72
37710;BME280;60223;34.854;-92.408;2022-08-11T13:19:56;100897.48;;;29.45;44.24
37710;BME280;60223;34.854;-92.408;2022-08-11T13:22:24;100895.30;;;30.23;43.03
37710;BME280;60223;34.854;-92.408;2022-08-11T13:24:48;100896.21;;;30.22;43.39
37710;BME280;60223;34.854;-92.408;2022-08-11T13:27:14;100895.22;;;29.49;44.14
37710;BME280;60223;34.854;-92.408;2022-08-11T13:29:41;100889.52;;;29.53;43.94
37710;BME280;60223;34.854;-92.408;2022-08-11T13:32:06;100885.85;;;29.07;44.77
37710;BME280;60223;34.854;-92.408;2022-08-11T13:34:33;100885.13;;;29.25;44.61
37710;BME280;60223;34.854;-92.408;2022-08-11T13:37:00;100885.81;;;29.27;44.58
37710;BME280;60223;34.854;-92.408;2022-08-11T13:39:22;100888.11;;;30.15;43.05